sensor_id;sensor_type;location;lat;lon;timestamp;pressure;altitude;pressure_sealevel;temperature;humidity
2036;BME280;23642;42.658;23.350;2022-12-07T00:00:54;50648.94;;;-146.31;96.24
2036;BME280;23642;42.658;23.350;2022-12-07T00:03:21;50646.88;;;-146.31;96.26
2036;BME280;23642;42.658;23.350;2022-12-07T00:05:48;50636.56;;;-146.31;96.60
2036;BME280;23642;42.658;23.350;2022-12-07T00:08:15;50650.97;;;-146.31;96.78
2036;BME280;23642;42.658;23.350;2022-12-07T00:10:41;50673.69;;;-146.31;96.48
2036;BME280;23642;42.658;23.350;2022-12-07T00:13:10;50655.13;;;-146.31;96.81
2036;BME280;23642;42.658;23.350;2022-12-07T00:15:38;50632.44;;;-146.31;96.65
2036;BME280;23642;42.658;23.350;2022-12-07T00:18:05;50650.97;;;-146.31;97.26
2036;BME280;23642;42.658;23.350;2022-12-07T00:20:32;50646.88;;;-146.31;97.42
2036;BME280;23642;42.658;23.350;2022-12-07T00:22:59;50618.00;;;-146.31;97.84
2036;BME280;23642;42.658;23.350;2022-12-07T00:25:28;50642.75;;;-146.31;97.75
2036;BME280;23642;42.658;23.350;2022-12-07T00:27:56;50605.59;;;-146.31;97.87
2036;BME280;23642;42.658;23.350;2022-12-07T00:30:23;50632.44;;;-146.31;98.26
2036;BME280;23642;42.658;23.350;2022-12-07T00:32:53;50607.69;;;-146.31;98.21
2036;BME280;23642;42.658;23.350;2022-12-07T00:35:20;50576.75;;;-146.31;98.03
2036;BME280;23642;42.658;23.350;2022-12-07T00:37:47;50560.25;;;-146.31;98.19
2036;BME280;23642;42.658;23.350;2022-12-07T00:40:14;50593.25;;;-146.31;97.86
2036;BME280;23642;42.658;23.350;2022-12-07T00:42:41;50564.38;;;-146.31;97.75
2036;BME280;23642;42.658;23.350;2022-12-07T00:45:08;50609.75;;;-146.31;97.29
2036;BME280;23642;42.658;23.350;2022-12-07T00:47:36;50613.88;;;-146.31;96.96
2036;BME280;23642;42.658;23.350;2022-12-07T00:50:09;50609.75;;;-146.31;97.35
2036;BME280;23642;42.658;23.350;2022-12-07T00:52:36;50609.75;;;-146.31;97.69
2036;BME280;23642;42.658;23.350;2022-12-07T00:55:03;50611.78;;;-146.31;97.65
2036;BME280;23642;42.658;23.350;2022-12-07T00:57:30;50601.50;;;-146.31;97.56
2036;BME280;23642;42.658;23.350;2022-12-07T00:59:57;50568.50;;;-146.31;97.57
2036;BME280;23642;42.658;23.350;2022-12-07T01:02:25;50615.94;;;-146.31;97.49
2036;BME280;23642;42.658;23.350;2022-12-07T01:04:52;50599.44;;;-146.31;97.98
2036;BME280;23642;42.658;23.350;2022-12-07T01:07:26;50595.31;;;-146.31;97.86
2036;BME280;23642;42.658;23.350;2022-12-07T01:09:53;50560.25;;;-146.31;97.69
2036;BME280;23642;42.658;23.350;2022-12-07T01:12:19;50576.75;;;-146.31;97.72
2036;BME280;23642;42.658;23.350;2022-12-07T01:14:46;50576.75;;;-146.31;97.71
2036;BME280;23642;42.658;23.350;2022-12-07T01:17:15;50576.75;;;-146.31;97.88
2036;BME280;23642;42.658;23.350;2022-12-07T01:19:42;50585.00;;;-146.31;97.67
2036;BME280;23642;42.658;23.350;2022-12-07T01:22:08;50566.44;;;-146.31;97.83
2036;BME280;23642;42.658;23.350;2022-12-07T01:24:39;50564.38;;;-146.31;97.38
2036;BME280;23642;42.658;23.350;2022-12-07T01:27:05;50585.00;;;-146.31;97.59
2036;BME280;23642;42.658;23.350;2022-12-07T01:29:32;50560.25;;;-146.31;97.43
2036;BME280;23642;42.658;23.350;2022-12-07T01:31:59;50552.00;;;-146.31;97.78
2036;BME280;23642;42.658;23.350;2022-12-07T01:34:25;50593.25;;;-146.31;97.73
2036;BME280;23642;42.658;23.350;2022-12-07T01:36:52;50589.13;;;-146.31;98.27
2036;BME280;23642;42.658;23.350;2022-12-07T01:39:19;50574.69;;;-146.31;98.51
2036;BME280;23642;42.658;23.350;2022-12-07T01:41:48;50547.88;;;-146.31;98.57
2036;BME280;23642;42.658;23.350;2022-12-07T01:44:18;50564.38;;;-146.31;98.91
2036;BME280;23642;42.658;23.350;2022-12-07T01:46:46;50502.50;;;-146.31;99.06
2036;BME280;23642;42.658;23.350;2022-12-07T01:49:17;50490.13;;;-146.31;99.30
2036;BME280;23642;42.658;23.350;2022-12-07T01:51:46;50490.13;;;-146.31;99.59
2036;BME280;23642;42.658;23.350;2022-12-07T01:54:14;50481.88;;;-146.31;99.24
2036;BME280;23642;42.658;23.350;2022-12-07T01:56:45;50473.63;;;-146.31;99.44
2036;BME280;23642;42.658;23.350;2022-12-07T01:59:16;50455.06;;;-146.31;99.58
2036;BME280;23642;42.658;23.350;2022-12-07T02:01:44;50432.38;;;-146.31;99.09
2036;BME280;23642;42.658;23.350;2022-12-07T02:04:12;50461.25;;;-146.31;98.87
2036;BME280;23642;42.658;23.350;2022-12-07T02:06:39;50488.06;;;-146.31;98.47
2036;BME280;23642;42.658;23.350;2022-12-07T02:09:07;50457.13;;;-146.31;98.73
2036;BME280;23642;42.658;23.350;2022-12-07T02:11:34;50479.81;;;-146.31;98.57
2036;BME280;23642;42.658;23.350;2022-12-07T02:14:03;50469.50;;;-146.31;98.10
2036;BME280;23642;42.658;23.350;2022-12-07T02:16:47;50496.31;;;-146.31;98.36
2036;BME280;23642;42.658;23.350;2022-12-07T02:19:57;50510.75;;;-146.31;98.26
2036;BME280;23642;42.658;23.350;2022-12-07T02:26:12;50506.63;;;-146.31;98.44
2036;BME280;23642;42.658;23.350;2022-12-07T02:29:00;50477.75;;;-146.31;98.68
2036;BME280;23642;42.658;23.350;2022-12-07T02:31:33;50457.13;;;-146.31;98.60
2036;BME280;23642;42.658;23.350;2022-12-07T02:34:08;50469.50;;;-146.31;98.59
2036;BME280;23642;42.658;23.350;2022-12-07T02:36:40;50483.94;;;-146.31;98.64
2036;BME280;23642;42.658;23.350;2022-12-07T02:39:14;50461.25;;;-146.31;98.49
2036;BME280;23642;42.658;23.350;2022-12-07T02:41:48;50496.31;;;-146.31;97.98
2036;BME280;23642;42.658;23.350;2022-12-07T02:44:22;50531.38;;;-146.31;97.81
2036;BME280;23642;42.658;23.350;2022-12-07T02:47:03;50531.38;;;-146.31;98.17
2036;BME280;23642;42.658;23.350;2022-12-07T02:49:32;50502.50;;;-146.31;98.86
2036;BME280;23642;42.658;23.350;2022-12-07T02:52:00;50486.00;;;-146.31;99.32
2036;BME280;23642;42.658;23.350;2022-12-07T02:54:26;50473.63;;;-146.31;99.30
2036;BME280;23642;42.658;23.350;2022-12-07T02:56:57;50424.13;;;-146.31;99.42
2036;BME280;23642;42.658;23.350;2022-12-07T02:59:40;50453.00;;;-146.31;99.77
2036;BME280;23642;42.658;23.350;2022-12-07T03:02:18;50459.19;;;-146.31;99.86
2036;BME280;23642;42.658;23.350;2022-12-07T03:04:55;50403.50;;;-146.31;100.00
2036;BME280;23642;42.658;23.350;2022-12-07T03:07:37;50411.75;;;-146.31;100.00
2036;BME280;23642;42.658;23.350;2022-12-07T03:10:18;50428.25;;;-146.31;100.00
2036;BME280;23642;42.658;23.350;2022-12-07T03:12:52;50362.25;;;-146.31;100.00
2036;BME280;23642;42.658;23.350;2022-12-07T03:15:35;50354.00;;;-146.31;100.00
2036;BME280;23642;42.658;23.350;2022-12-07T03:18:10;50310.69;;;-146.31;100.00
2036;BME280;23642;42.658;23.350;2022-12-07T03:20:43;50195.19;;;-146.31;100.00
2036;BME280;23642;42.658;23.350;2022-12-07T03:23:19;50213.75;;;-146.31;100.00
2036;BME280;23642;42.658;23.350;2022-12-07T03:25:56;50197.25;;;-146.31;100.00
2036;BME280;23642;42.658;23.350;2022-12-07T03:28:28;50172.50;;;-146.31;100.00
2036;BME280;23642;42.658;23.350;2022-12-07T03:31:11;50143.66;;;-146.31;100.00
2036;BME280;23642;42.658;23.350;2022-12-07T03:33:46;50085.91;;;-146.31;100.00
2036;BME280;23642;42.658;23.350;2022-12-07T03:36:20;50057.03;;;-146.31;100.00
2036;BME280;23642;42.658;23.350;2022-12-07T03:38:53;49976.59;;;-146.31;100.00
2036;BME280;23642;42.658;23.350;2022-12-07T03:41:24;49925.06;;;-146.31;100.00
2036;BME280;23642;42.658;23.350;2022-12-07T03:43:53;49887.94;;;-146.31;100.00
2036;BME280;23642;42.658;23.350;2022-12-07T03:46:27;49904.44;;;-146.31;100.00
2036;BME280;23642;42.658;23.350;2022-12-07T03:49:03;49861.13;;;-146.31;100.00
2036;BME280;23642;42.658;23.350;2022-12-07T03:51:38;49821.97;;;-146.31;100.00
2036;BME280;23642;42.658;23.350;2022-12-07T03:54:10;49828.13;;;-146.31;100.00
2036;BME280;23642;42.658;23.350;2022-12-07T03:56:39;49797.22;;;-146.31;100.00
2036;BME280;23642;42.658;23.350;2022-12-07T03:59:07;49755.97;;;-146.31;100.00
2036;BME280;23642;42.658;23.350;2022-12-07T04:01:37;49722.97;;;-146.31;100.00
2036;BME280;23642;42.658;23.350;2022-12-07T04:04:09;49722.97;;;-146.31;100.00
2036;BME280;23642;42.658;23.350;2022-12-07T04:06:36;49694.13;;;-146.31;100.00
2036;BME280;23642;42.658;23.350;2022-12-07T04:09:04;49700.28;;;-146.31;100.00
2036;BME280;23642;42.658;23.350;2022-12-07T04:11:32;49681.75;;;-146.31;100.00
2036;BME280;23642;42.658;23.350;2022-12-07T04:14:01;49665.25;;;-146.31;100.00
2036;BME280;23642;42.658;23.350;2022-12-07T04:16:54;49669.38;;;-146.31;100.00
2036;BME280;23642;42.658;23.350;2022-12-07T04:19:23;49640.50;;;-146.31;100.00
2036;BME280;23642;42.658;23.350;2022-12-07T04:21:50;49659.06;;;-146.31;100.00
2036;BME280;23642;42.658;23.350;2022-12-07T04:24:17;49657.00;;;-146.31;100.00
2036;BME280;23642;42.658;23.350;2022-12-07T04:26:44;49683.81;;;-146.31;100.00
2036;BME280;23642;42.658;23.350;2022-12-07T04:29:14;49706.47;;;-146.31;100.00
2036;BME280;23642;42.658;23.350;2022-12-07T04:31:41;49698.25;;;-146.31;100.00
2036;BME280;23642;42.658;23.350;2022-12-07T04:34:10;49694.13;;;-146.31;100.00
2036;BME280;23642;42.658;23.350;2022-12-07T04:36:37;49696.19;;;-146.31;100.00
2036;BME280;23642;42.658;23.350;2022-12-07T04:39:05;49710.59;;;-146.31;100.00
2036;BME280;23642;42.658;23.350;2022-12-07T04:41:33;49681.75;;;-146.31;100.00
2036;BME280;23642;42.658;23.350;2022-12-07T04:44:02;49663.19;;;-146.31;100.00
2036;BME280;23642;42.658;23.350;2022-12-07T04:46:32;49657.00;;;-146.31;100.00
2036;BME280;23642;42.658;23.350;2022-12-07T04:48:59;49597.19;;;-146.31;100.00
2036;BME280;23642;42.658;23.350;2022-12-07T04:51:29;49591.03;;;-146.31;100.00
2036;BME280;23642;42.658;23.350;2022-12-07T04:53:56;49648.75;;;-146.31;100.00
2036;BME280;23642;42.658;23.350;2022-12-07T04:56:26;49603.38;;;-146.31;100.00
2036;BME280;23642;42.658;23.350;2022-12-07T04:58:54;49564.22;;;-146.31;100.00
2036;BME280;23642;42.658;23.350;2022-12-07T05:01:22;49549.78;;;-146.31;100.00
2036;BME280;23642;42.658;23.350;2022-12-07T05:03:49;49471.44;;;-146.31;100.00
2036;BME280;23642;42.658;23.350;2022-12-07T05:06:16;49417.81;;;-146.31;100.00
2036;BME280;23642;42.658;23.350;2022-12-07T05:08:46;49388.97;;;-146.31;100.00
2036;BME280;23642;42.658;23.350;2022-12-07T05:11:15;49362.16;;;-146.31;100.00
2036;BME280;23642;42.658;23.350;2022-12-07T05:13:56;49337.41;;;-146.31;100.00
2036;BME280;23642;42.658;23.350;2022-12-07T05:16:23;49325.03;;;-146.31;100.00
2036;BME280;23642;42.658;23.350;2022-12-07T05:18:50;49277.63;;;-146.31;100.00
2036;BME280;23642;42.658;23.350;2022-12-07T05:21:17;49205.47;;;-146.31;100.00
2036;BME280;23642;42.658;23.350;2022-12-07T05:23:43;49176.59;;;-146.31;100.00
2036;BME280;23642;42.658;23.350;2022-12-07T05:26:12;49104.44;;;-146.31;100.00
2036;BME280;23642;42.658;23.350;2022-12-07T05:28:39;49048.78;;;-146.31;100.00
2036;BME280;23642;42.658;23.350;2022-12-07T05:31:06;49052.91;;;-146.31;100.00
2036;BME280;23642;42.658;23.350;2022-12-07T05:33:32;49022.00;;;-146.31;100.00
2036;BME280;23642;42.658;23.350;2022-12-07T05:36:01;49001.38;;;-146.31;100.00
2036;BME280;23642;42.658;23.350;2022-12-07T05:38:33;48962.19;;;-146.31;100.00
2036;BME280;23642;42.658;23.350;2022-12-07T05:41:01;48939.53;;;-146.31;100.00
2036;BME280;23642;42.658;23.350;2022-12-07T05:43:30;48947.78;;;-146.31;100.00
2036;BME280;23642;42.658;23.350;2022-12-07T05:45:58;48908.59;;;-146.31;100.00
2036;BME280;23642;42.658;23.350;2022-12-07T05:48:25;48900.34;;;-146.31;100.00
2036;BME280;23642;42.658;23.350;2022-12-07T05:50:52;48846.75;;;-146.31;100.00
2036;BME280;23642;42.658;23.350;2022-12-07T05:53:19;48900.34;;;-146.31;100.00
2036;BME280;23642;42.658;23.350;2022-12-07T05:55:45;48896.25;;;-146.31;100.00
2036;BME280;23642;42.658;23.350;2022-12-07T05:58:15;48910.66;;;-146.31;100.00
2036;BME280;23642;42.658;23.350;2022-12-07T06:01:00;48964.25;;;-146.31;100.00
2036;BME280;23642;42.658;23.350;2022-12-07T06:03:27;48972.50;;;-146.31;100.00
2036;BME280;23642;42.658;23.350;2022-12-07T06:05:58;48989.00;;;-146.31;100.00
2036;BME280;23642;42.658;23.350;2022-12-07T06:08:25;48993.13;;;-146.31;100.00
2036;BME280;23642;42.658;23.350;2022-12-07T06:10:53;48999.31;;;-146.31;100.00
2036;BME280;23642;42.658;23.350;2022-12-07T06:13:40;49005.50;;;-146.31;100.00
2036;BME280;23642;42.658;23.350;2022-12-07T06:16:11;48986.94;;;-146.31;100.00
2036;BME280;23642;42.658;23.350;2022-12-07T06:18:38;49026.13;;;-146.31;100.00
2036;BME280;23642;42.658;23.350;2022-12-07T06:21:07;49048.78;;;-146.31;100.00
2036;BME280;23642;42.658;23.350;2022-12-07T06:23:37;49030.22;;;-146.31;100.00
2036;BME280;23642;42.658;23.350;2022-12-07T06:26:07;49036.41;;;-146.31;100.00
2036;BME280;23642;42.658;23.350;2022-12-07T06:28:33;49026.13;;;-146.31;100.00
2036;BME280;23642;42.658;23.350;2022-12-07T06:31:02;48997.25;;;-146.31;100.00
2036;BME280;23642;42.658;23.350;2022-12-07T06:33:30;49038.47;;;-146.31;100.00
2036;BME280;23642;42.658;23.350;2022-12-07T06:35:59;49061.16;;;-146.31;100.00
2036;BME280;23642;42.658;23.350;2022-12-07T06:38:26;49071.47;;;-146.31;100.00
2036;BME280;23642;42.658;23.350;2022-12-07T06:40:53;49116.81;;;-146.31;100.00
2036;BME280;23642;42.658;23.350;2022-12-07T06:43:20;49120.94;;;-146.31;100.00
2036;BME280;23642;42.658;23.350;2022-12-07T06:45:47;49131.25;;;-146.31;100.00
2036;BME280;23642;42.658;23.350;2022-12-07T06:48:16;49211.66;;;-146.31;100.00
2036;BME280;23642;42.658;23.350;2022-12-07T06:50:45;49269.38;;;-146.31;100.00
2036;BME280;23642;42.658;23.350;2022-12-07T06:53:15;49310.63;;;-146.31;100.00
2036;BME280;23642;42.658;23.350;2022-12-07T06:55:41;49428.13;;;-146.31;99.39
2036;BME280;23642;42.658;23.350;2022-12-07T06:58:09;49496.16;;;-146.31;99.19
2036;BME280;23642;42.658;23.350;2022-12-07T07:00:36;49527.09;;;-146.31;99.06
2036;BME280;23642;42.658;23.350;2022-12-07T07:03:03;49545.66;;;-146.31;98.99
2036;BME280;23642;42.658;23.350;2022-12-07T07:05:33;49615.75;;;-146.31;98.75
2036;BME280;23642;42.658;23.350;2022-12-07T07:08:02;49624.00;;;-146.31;98.26
2036;BME280;23642;42.658;23.350;2022-12-07T07:10:29;49677.63;;;-146.31;98.23
2036;BME280;23642;42.658;23.350;2022-12-07T07:12:56;49673.50;;;-146.31;98.29
2036;BME280;23642;42.658;23.350;2022-12-07T07:15:25;49687.94;;;-146.31;98.04
2036;BME280;23642;42.658;23.350;2022-12-07T07:17:54;49702.34;;;-146.31;97.83
2036;BME280;23642;42.658;23.350;2022-12-07T07:20:24;49735.34;;;-146.31;97.56
2036;BME280;23642;42.658;23.350;2022-12-07T07:22:59;49772.47;;;-146.31;97.52
2036;BME280;23642;42.658;23.350;2022-12-07T07:25:32;49780.72;;;-146.31;96.61
2036;BME280;23642;42.658;23.350;2022-12-07T07:28:03;49846.69;;;-146.31;96.16
2036;BME280;23642;42.658;23.350;2022-12-07T07:30:32;49877.63;;;-146.31;96.03
2036;BME280;23642;42.658;23.350;2022-12-07T07:33:17;49892.06;;;-146.31;96.24
2036;BME280;23642;42.658;23.350;2022-12-07T07:36:02;49920.94;;;-146.31;95.94
2036;BME280;23642;42.658;23.350;2022-12-07T07:38:47;49929.19;;;-146.31;95.87
2036;BME280;23642;42.658;23.350;2022-12-07T07:41:26;49982.78;;;-146.31;95.32
2036;BME280;23642;42.658;23.350;2022-12-07T07:44:12;50011.66;;;-146.31;94.90
2036;BME280;23642;42.658;23.350;2022-12-07T07:46:43;50015.78;;;-146.31;94.59
2036;BME280;23642;42.658;23.350;2022-12-07T07:49:12;50026.09;;;-146.31;94.18
2036;BME280;23642;42.658;23.350;2022-12-07T07:51:39;50083.84;;;-146.31;92.93
2036;BME280;23642;42.658;23.350;2022-12-07T07:54:19;50127.16;;;-146.31;92.64
2036;BME280;23642;42.658;23.350;2022-12-07T07:57:20;50160.13;;;-146.31;91.49
2036;BME280;23642;42.658;23.350;2022-12-07T07:59:54;50234.38;;;-146.31;90.43
2036;BME280;23642;42.658;23.350;2022-12-07T08:02:22;50240.56;;;-146.31;90.11
2036;BME280;23642;42.658;23.350;2022-12-07T08:04:50;50242.63;;;-146.31;91.32
2036;BME280;23642;42.658;23.350;2022-12-07T08:07:20;50279.75;;;-146.31;91.56
2036;BME280;23642;42.658;23.350;2022-12-07T08:09:47;50238.50;;;-146.31;91.64
2036;BME280;23642;42.658;23.350;2022-12-07T08:15:36;50205.50;;;-146.31;91.94
2036;BME280;23642;42.658;23.350;2022-12-07T08:18:38;50288.00;;;-146.31;90.62
2036;BME280;23642;42.658;23.350;2022-12-07T08:21:48;50283.88;;;-146.31;91.12
2036;BME280;23642;42.658;23.350;2022-12-07T08:27:18;50296.25;;;-146.31;90.89
2036;BME280;23642;42.658;23.350;2022-12-07T08:30:21;50318.94;;;-146.31;90.11
2036;BME280;23642;42.658;23.350;2022-12-07T08:32:54;50310.69;;;-146.31;90.56
2036;BME280;23642;42.658;23.350;2022-12-07T08:42:03;50370.50;;;-146.31;91.01
2036;BME280;23642;42.658;23.350;2022-12-07T08:44:38;50378.75;;;-146.31;90.94
2036;BME280;23642;42.658;23.350;2022-12-07T08:50:37;50347.81;;;-146.31;91.12
2036;BME280;23642;42.658;23.350;2022-12-07T09:00:32;50403.50;;;-146.31;89.87
2036;BME280;23642;42.658;23.350;2022-12-07T09:07:11;50399.38;;;-146.31;90.76
2036;BME280;23642;42.658;23.350;2022-12-07T09:10:42;50384.94;;;-146.31;90.56
2036;BME280;23642;42.658;23.350;2022-12-07T09:14:12;50347.81;;;-146.31;89.11
2036;BME280;23642;42.658;23.350;2022-12-07T09:34:40;50420.00;;;-146.31;87.97
2036;BME280;23642;42.658;23.350;2022-12-07T09:37:24;50453.00;;;-146.31;87.68
2036;BME280;23642;42.658;23.350;2022-12-07T09:40:06;50469.50;;;-146.31;86.24
2036;BME280;23642;42.658;23.350;2022-12-07T09:42:57;50440.63;;;-146.31;86.54
2036;BME280;23642;42.658;23.350;2022-12-07T09:48:59;50527.25;;;-146.31;85.55
2036;BME280;23642;42.658;23.350;2022-12-07T09:58:36;50558.19;;;-146.31;84.05
2036;BME280;23642;42.658;23.350;2022-12-07T10:03:39;50585.00;;;-146.31;82.53
2036;BME280;23642;42.658;23.350;2022-12-07T10:07:57;50609.75;;;-146.31;81.12
2036;BME280;23642;42.658;23.350;2022-12-07T10:13:32;50688.13;;;-146.31;79.35
2036;BME280;23642;42.658;23.350;2022-12-07T10:16:31;50692.25;;;-146.31;79.18
2036;BME280;23642;42.658;23.350;2022-12-07T10:19:36;50729.38;;;-146.31;77.65
2036;BME280;23642;42.658;23.350;2022-12-07T10:51:24;50865.50;;;-146.31;76.98
2036;BME280;23642;42.658;23.350;2022-12-07T10:56:29;50890.25;;;-146.31;76.00
2036;BME280;23642;42.658;23.350;2022-12-07T11:25:51;50935.63;;;-146.31;78.71
2036;BME280;23642;42.658;23.350;2022-12-07T11:29:38;50952.13;;;-146.31;77.60
2036;BME280;23642;42.658;23.350;2022-12-07T11:32:02;50985.13;;;-146.31;77.63
2036;BME280;23642;42.658;23.350;2022-12-07T11:35:11;51001.63;;;-146.31;78.12
2036;BME280;23642;42.658;23.350;2022-12-07T11:37:49;50966.56;;;-146.31;79.47
2036;BME280;23642;42.658;23.350;2022-12-07T11:40:30;51007.81;;;-146.31;79.62
2036;BME280;23642;42.658;23.350;2022-12-07T11:44:15;51001.63;;;-146.31;80.57
2036;BME280;23642;42.658;23.350;2022-12-07T11:50:27;50999.56;;;-146.31;81.67
2036;BME280;23642;42.658;23.350;2022-12-07T11:53:18;50956.25;;;-146.31;81.69
2036;BME280;23642;42.658;23.350;2022-12-07T11:55:56;50991.31;;;-146.31;80.91
2036;BME280;23642;42.658;23.350;2022-12-07T11:58:42;51020.19;;;-146.31;82.28
2036;BME280;23642;42.658;23.350;2022-12-07T12:01:38;50991.31;;;-146.31;82.04
2036;BME280;23642;42.658;23.350;2022-12-07T12:04:45;50981.00;;;-146.31;81.51
2036;BME280;23642;42.658;23.350;2022-12-07T12:07:17;51001.63;;;-146.31;82.43
2036;BME280;23642;42.658;23.350;2022-12-07T12:09:50;50997.50;;;-146.31;82.95
2036;BME280;23642;42.658;23.350;2022-12-07T12:12:42;51024.31;;;-146.31;82.22
2036;BME280;23642;42.658;23.350;2022-12-07T12:15:33;51005.75;;;-146.31;81.35
2036;BME280;23642;42.658;23.350;2022-12-07T12:18:17;51034.63;;;-146.31;80.90
2036;BME280;23642;42.658;23.350;2022-12-07T12:20:55;51061.44;;;-146.31;81.01
2036;BME280;23642;42.658;23.350;2022-12-07T12:23:36;51030.50;;;-146.31;80.25
2036;BME280;23642;42.658;23.350;2022-12-07T12:26:06;51053.19;;;-146.31;80.70
2036;BME280;23642;42.658;23.350;2022-12-07T12:28:39;51036.69;;;-146.31;80.71
2036;BME280;23642;42.658;23.350;2022-12-07T12:31:11;51055.25;;;-146.31;78.12
2036;BME280;23642;42.658;23.350;2022-12-07T12:33:49;51020.19;;;-146.31;77.92
2036;BME280;23642;42.658;23.350;2022-12-07T12:36:20;51032.56;;;-146.31;78.13
2036;BME280;23642;42.658;23.350;2022-12-07T12:39:09;51044.94;;;-146.31;76.77
2036;BME280;23642;42.658;23.350;2022-12-07T12:41:53;51042.88;;;-146.31;76.32
2036;BME280;23642;42.658;23.350;2022-12-07T12:45:02;51067.63;;;-146.31;76.83
2036;BME280;23642;42.658;23.350;2022-12-07T12:47:55;51055.25;;;-146.31;76.17
2036;BME280;23642;42.658;23.350;2022-12-07T12:50:31;51049.06;;;-146.31;75.45
2036;BME280;23642;42.658;23.350;2022-12-07T12:53:14;51049.06;;;-146.31;76.00
2036;BME280;23642;42.658;23.350;2022-12-07T12:56:04;51042.88;;;-146.31;74.92
2036;BME280;23642;42.658;23.350;2022-12-07T12:58:42;51049.06;;;-146.31;75.12
2036;BME280;23642;42.658;23.350;2022-12-07T13:01:44;51053.19;;;-146.31;75.04
2036;BME280;23642;42.658;23.350;2022-12-07T13:04:47;51067.63;;;-146.31;75.58
2036;BME280;23642;42.658;23.350;2022-12-07T13:10:46;51096.53;;;-146.31;76.11
2036;BME280;23642;42.658;23.350;2022-12-07T13:13:50;51086.22;;;-146.31;75.05
2036;BME280;23642;42.658;23.350;2022-12-07T13:16:40;51104.78;;;-146.31;75.35
2036;BME280;23642;42.658;23.350;2022-12-07T13:22:40;51108.91;;;-146.31;75.88
2036;BME280;23642;42.658;23.350;2022-12-07T13:25:33;51125.41;;;-146.31;75.93
2036;BME280;23642;42.658;23.350;2022-12-07T13:28:09;51133.66;;;-146.31;76.75
2036;BME280;23642;42.658;23.350;2022-12-07T13:30:51;51100.66;;;-146.31;77.92
2036;BME280;23642;42.658;23.350;2022-12-07T13:33:24;51092.41;;;-146.31;77.80
2036;BME280;23642;42.658;23.350;2022-12-07T13:36:02;51092.41;;;-146.31;78.24
2036;BME280;23642;42.658;23.350;2022-12-07T13:41:52;51053.19;;;-146.31;77.42
2036;BME280;23642;42.658;23.350;2022-12-07T13:44:23;51075.88;;;-146.31;77.95
2036;BME280;23642;42.658;23.350;2022-12-07T13:46:57;51069.69;;;-146.31;77.16
2036;BME280;23642;42.658;23.350;2022-12-07T13:49:28;51067.63;;;-146.31;78.24
2036;BME280;23642;42.658;23.350;2022-12-07T13:52:14;51065.56;;;-146.31;78.62
2036;BME280;23642;42.658;23.350;2022-12-07T13:54:46;51059.38;;;-146.31;78.50
2036;BME280;23642;42.658;23.350;2022-12-07T13:57:25;51071.75;;;-146.31;79.65
2036;BME280;23642;42.658;23.350;2022-12-07T14:00:05;51067.63;;;-146.31;79.90
2036;BME280;23642;42.658;23.350;2022-12-07T14:02:55;51038.75;;;-146.31;79.70
2036;BME280;23642;42.658;23.350;2022-12-07T14:05:29;51047.00;;;-146.31;80.85
2036;BME280;23642;42.658;23.350;2022-12-07T14:09:06;51059.38;;;-146.31;81.60
2036;BME280;23642;42.658;23.350;2022-12-07T14:11:49;51055.25;;;-146.31;81.64
2036;BME280;23642;42.658;23.350;2022-12-07T14:14:29;51063.50;;;-146.31;81.71
2036;BME280;23642;42.658;23.350;2022-12-07T14:17:11;51092.41;;;-146.31;82.37
2036;BME280;23642;42.658;23.350;2022-12-07T14:19:51;51094.47;;;-146.31;83.06
2036;BME280;23642;42.658;23.350;2022-12-07T14:23:21;51084.16;;;-146.31;83.67
2036;BME280;23642;42.658;23.350;2022-12-07T14:25:26;51075.88;;;-146.31;84.24
2036;BME280;23642;42.658;23.350;2022-12-07T14:28:34;51090.34;;;-146.31;84.84
2036;BME280;23642;42.658;23.350;2022-12-07T14:31:12;51063.50;;;-146.31;85.77
2036;BME280;23642;42.658;23.350;2022-12-07T14:33:42;51092.41;;;-146.31;86.58
2036;BME280;23642;42.658;23.350;2022-12-07T14:36:13;51084.16;;;-146.31;87.63
2036;BME280;23642;42.658;23.350;2022-12-07T14:38:40;51080.03;;;-146.31;88.00
2036;BME280;23642;42.658;23.350;2022-12-07T14:41:14;51065.56;;;-146.31;87.98
2036;BME280;23642;42.658;23.350;2022-12-07T14:44:16;51065.56;;;-146.31;88.79
2036;BME280;23642;42.658;23.350;2022-12-07T14:46:51;51053.19;;;-146.31;89.06
2036;BME280;23642;42.658;23.350;2022-12-07T14:49:22;51069.69;;;-146.31;90.35
2036;BME280;23642;42.658;23.350;2022-12-07T14:51:49;51030.50;;;-146.31;90.26
2036;BME280;23642;42.658;23.350;2022-12-07T14:54:18;51028.44;;;-146.31;90.29
2036;BME280;23642;42.658;23.350;2022-12-07T14:57:14;51032.56;;;-146.31;90.40
2036;BME280;23642;42.658;23.350;2022-12-07T14:59:48;50993.38;;;-146.31;90.51
2036;BME280;23642;42.658;23.350;2022-12-07T15:02:18;51026.38;;;-146.31;91.01
2036;BME280;23642;42.658;23.350;2022-12-07T15:04:51;51024.31;;;-146.31;91.52
2036;BME280;23642;42.658;23.350;2022-12-07T15:07:26;51026.38;;;-146.31;92.23
2036;BME280;23642;42.658;23.350;2022-12-07T15:09:53;51001.63;;;-146.31;92.96
2036;BME280;23642;42.658;23.350;2022-12-07T15:12:28;51007.81;;;-146.31;93.36
2036;BME280;23642;42.658;23.350;2022-12-07T15:15:01;50956.25;;;-146.31;94.19
2036;BME280;23642;42.658;23.350;2022-12-07T15:17:29;50972.75;;;-146.31;94.38
2036;BME280;23642;42.658;23.350;2022-12-07T15:20:03;50941.81;;;-146.31;94.98
2036;BME280;23642;42.658;23.350;2022-12-07T15:22:30;50919.13;;;-146.31;95.06
2036;BME280;23642;42.658;23.350;2022-12-07T15:25:00;50910.88;;;-146.31;95.30
2036;BME280;23642;42.658;23.350;2022-12-07T15:27:32;50898.50;;;-146.31;95.39
2036;BME280;23642;42.658;23.350;2022-12-07T15:30:05;50675.75;;;-146.31;98.27
2036;BME280;23642;42.658;23.350;2022-12-07T15:32:32;50632.44;;;-146.31;98.13
2036;BME280;23642;42.658;23.350;2022-12-07T15:34:59;50321.00;;;-146.31;99.52
2036;BME280;23642;42.658;23.350;2022-12-07T15:37:26;50234.38;;;-146.31;95.61